Time;durP1;ratioP1;P1;durP2;ratioP2;P2;SDS_P1;SDS_P2;PMS_P1;PMS_P2;Temp;Humidity;BMP_temperature;BMP_pressure;BME280_temperature;BME280_humidity;BME280_pressure;Samples;Min_cycle;Max_cycle;Signal;HPM_P1;HPM_P2
2021/07/29 00:02:18;;;;;;;5.60;2.90;;;;;;;;;;5033350;28;20536;-54
2021/07/29 00:04:45;;;;;;;6.80;3.57;;;;;;;;;;5032856;28;20445;-56
2021/07/29 00:07:12;;;;;;;4.43;3.07;;;;;;;;;;5033399;28;20465;-55
2021/07/29 00:09:39;;;;;;;5.20;3.70;;;;;;;;;;5033221;28;20526;-55
2021/07/29 00:12:07;;;;;;;5.00;2.90;;;;;;;;;;5032912;28;20453;-55
2021/07/29 00:14:34;;;;;;;4.90;3.53;;;;;;;;;;5032950;28;20488;-55
2021/07/29 00:17:03;;;;;;;5.70;3.00;;;;;;;;;;5032755;28;20464;-55
2021/07/29 00:19:30;;;;;;;4.57;3.50;;;;;;;;;;5033054;28;20473;-55
2021/07/29 00:21:57;;;;;;;8.40;3.43;;;;;;;;;;5033065;28;20445;-55
2021/07/29 00:24:26;;;;;;;3.73;3.20;;;;;;;;;;5035450;28;20969;-55
2021/07/29 00:26:54;;;;;;;3.90;3.50;;;;;;;;;;5037037;28;20488;-55
2021/07/29 00:29:21;;;;;;;6.03;4.40;;;;;;;;;;5038966;28;20858;-55
2021/07/29 00:31:48;;;;;;;4.90;4.23;;;;;;;;;;5037222;28;20942;-55
2021/07/29 00:34:17;;;;;;;4.73;3.40;;;;;;;;;;5037161;28;20476;-55
2021/07/29 00:36:44;;;;;;;3.50;3.17;;;;;;;;;;5037326;28;20481;-55
2021/07/29 00:39:11;;;;;;;4.97;3.60;;;;;;;;;;5037317;28;20456;-55
2021/07/29 00:41:39;;;;;;;3.20;2.90;;;;;;;;;;5037800;28;20930;-55
2021/07/29 00:44:07;;;;;;;3.60;3.20;;;;;;;;;;5037285;28;20499;-56
2021/07/29 00:46:35;;;;;;;7.83;3.63;;;;;;;;;;5037071;28;20475;-55
2021/07/29 00:49:02;;;;;;;3.50;3.10;;;;;;;;;;5036986;28;20445;-55
2021/07/29 00:51:31;;;;;;;3.97;3.33;;;;;;;;;;5036686;28;20451;-55
2021/07/29 00:54:00;;;;;;;4.90;3.03;;;;;;;;;;5036635;28;20574;-55
2021/07/29 00:56:28;;;;;;;3.53;3.00;;;;;;;;;;5036498;28;20469;-56
2021/07/29 00:58:55;;;;;;;3.80;3.10;;;;;;;;;;5036591;28;20453;-55
2021/07/29 01:01:23;;;;;;;5.33;3.33;;;;;;;;;;5036167;28;20445;-55
2021/07/29 01:03:51;;;;;;;4.30;2.90;;;;;;;;;;5036976;28;20528;-55
2021/07/29 01:06:18;;;;;;;4.50;3.10;;;;;;;;;;5036038;28;20991;-55
2021/07/29 01:09:03;;;;;;;6.73;3.20;;;;;;;;;;5036486;28;20499;-55
2021/07/29 01:11:30;;;;;;;3.53;2.90;;;;;;;;;;5036094;28;20452;-55
2021/07/29 01:13:57;;;;;;;3.20;2.90;;;;;;;;;;5036334;28;20508;-55
2021/07/29 01:16:24;;;;;;;4.97;3.70;;;;;;;;;;5035867;28;20972;-55
2021/07/29 01:18:51;;;;;;;5.00;3.13;;;;;;;;;;5036391;28;20449;-55
2021/07/29 01:21:20;;;;;;;3.30;2.90;;;;;;;;;;5036272;28;20441;-55
2021/07/29 01:23:47;;;;;;;4.00;3.33;;;;;;;;;;5036176;28;20499;-55
2021/07/29 01:26:15;;;;;;;4.50;3.20;;;;;;;;;;5035695;28;20956;-55
2021/07/29 01:28:42;;;;;;;5.50;3.70;;;;;;;;;;5035724;28;20628;-55
2021/07/29 01:31:09;;;;;;;3.93;3.23;;;;;;;;;;5035900;28;20449;-55
2021/07/29 01:33:36;;;;;;;3.60;3.17;;;;;;;;;;5035597;28;21050;-55
2021/07/29 01:38:38;;;;;;;4.43;3.20;;;;;;;;;;5053285;22;20532;-57
2021/07/29 01:41:05;;;;;;;6.10;3.70;;;;;;;;;;5036156;28;20817;-58
2021/07/29 01:43:32;;;;;;;4.30;3.00;;;;;;;;;;5035830;28;20434;-58
2021/07/29 01:46:00;;;;;;;3.90;3.60;;;;;;;;;;5035595;28;20999;-58
2021/07/29 01:48:27;;;;;;;8.40;4.10;;;;;;;;;;5035724;28;20461;-58
2021/07/29 01:50:54;;;;;;;5.27;4.00;;;;;;;;;;5035782;28;20506;-57
2021/07/29 01:53:22;;;;;;;8.33;4.60;;;;;;;;;;5035397;28;20530;-56
2021/07/29 01:55:51;;;;;;;4.67;3.53;;;;;;;;;;5035698;28;20825;-56
2021/07/29 01:58:18;;;;;;;13.60;4.00;;;;;;;;;;5035531;28;20515;-58
2021/07/29 02:00:46;;;;;;;4.47;3.87;;;;;;;;;;5035113;28;20445;-58
2021/07/29 02:03:13;;;;;;;3.70;3.30;;;;;;;;;;5035270;28;20496;-58
2021/07/29 02:05:41;;;;;;;4.60;4.07;;;;;;;;;;5035443;28;20507;-57
2021/07/29 02:08:08;;;;;;;5.90;4.37;;;;;;;;;;5035390;28;20523;-58
2021/07/29 02:10:35;;;;;;;6.40;3.93;;;;;;;;;;5035316;28;20503;-58
2021/07/29 02:13:04;;;;;;;5.43;3.67;;;;;;;;;;5035218;28;20441;-58
2021/07/29 02:15:31;;;;;;;4.53;3.70;;;;;;;;;;5035217;28;20453;-58
2021/07/29 02:17:59;;;;;;;4.17;3.87;;;;;;;;;;5034825;28;20465;-57
2021/07/29 02:20:26;;;;;;;4.67;4.20;;;;;;;;;;5034821;28;20926;-57
2021/07/29 02:22:54;;;;;;;7.43;4.40;;;;;;;;;;5035315;28;20441;-58
2021/07/29 02:25:21;;;;;;;4.80;4.37;;;;;;;;;;5034786;28;20453;-58
2021/07/29 02:27:48;;;;;;;5.70;4.10;;;;;;;;;;5034907;28;20830;-58
2021/07/29 02:30:17;;;;;;;5.93;4.40;;;;;;;;;;5034972;28;20448;-57
2021/07/29 02:32:44;;;;;;;5.07;4.57;;;;;;;;;;5034542;28;20449;-57
2021/07/29 02:35:12;;;;;;;4.83;4.20;;;;;;;;;;5034803;28;20484;-58
2021/07/29 02:37:39;;;;;;;4.80;3.93;;;;;;;;;;5034429;28;20523;-56
2021/07/29 02:40:07;;;;;;;4.33;3.90;;;;;;;;;;5034436;28;20449;-57
2021/07/29 02:42:34;;;;;;;6.00;4.20;;;;;;;;;;5034670;28;20498;-57
2021/07/29 02:45:01;;;;;;;4.57;4.13;;;;;;;;;;5034650;28;20467;-58
2021/07/29 02:47:30;;;;;;;4.10;3.60;;;;;;;;;;5033460;28;20519;-57
2021/07/29 02:49:57;;;;;;;4.40;3.63;;;;;;;;;;5034572;28;20449;-57
2021/07/29 02:52:24;;;;;;;4.00;3.27;;;;;;;;;;5034238;28;21007;-58
2021/07/29 02:54:51;;;;;;;4.73;4.10;;;;;;;;;;5034529;28;20484;-58
2021/07/29 02:57:18;;;;;;;4.10;3.70;;;;;;;;;;5034047;28;20555;-58
2021/07/29 02:59:46;;;;;;;4.43;3.83;;;;;;;;;;5034405;28;20925;-58
2021/07/29 03:02:13;;;;;;;6.07;4.40;;;;;;;;;;5035128;28;20449;-57
2021/07/29 03:04:41;;;;;;;4.77;4.00;;;;;;;;;;5035161;28;20780;-59
2021/07/29 03:07:09;;;;;;;4.70;4.10;;;;;;;;;;5036149;28;20858;-57
2021/07/29 03:09:36;;;;;;;7.37;4.37;;;;;;;;;;5040166;28;20495;-58
2021/07/29 03:12:04;;;;;;;5.80;4.20;;;;;;;;;;5044292;28;21011;-57
2021/07/29 03:14:31;;;;;;;5.17;4.00;;;;;;;;;;5043598;28;20500;-57
2021/07/29 03:16:58;;;;;;;4.13;3.60;;;;;;;;;;5039284;28;20814;-58
2021/07/29 03:19:26;;;;;;;8.37;4.73;;;;;;;;;;5034059;28;20454;-56
2021/07/29 03:21:54;;;;;;;4.30;3.90;;;;;;;;;;5034127;28;20444;-58
2021/07/29 03:24:21;;;;;;;6.73;4.03;;;;;;;;;;5034140;28;20495;-58
2021/07/29 03:26:49;;;;;;;6.07;3.97;;;;;;;;;;5033834;28;20465;-58
2021/07/29 03:29:16;;;;;;;5.13;3.90;;;;;;;;;;5033978;28;20449;-58
2021/07/29 03:31:43;;;;;;;7.00;4.43;;;;;;;;;;5033540;28;20982;-58
2021/07/29 03:34:10;;;;;;;4.43;4.03;;;;;;;;;;5033698;28;20473;-58
2021/07/29 03:36:38;;;;;;;5.03;4.10;;;;;;;;;;5033290;28;20989;-58
2021/07/29 03:39:06;;;;;;;6.63;4.93;;;;;;;;;;5033804;28;20495;-58
2021/07/29 03:41:34;;;;;;;4.37;3.97;;;;;;;;;;5033432;28;20450;-58
2021/07/29 03:44:01;;;;;;;5.80;4.17;;;;;;;;;;5033727;28;20487;-58
2021/07/29 03:46:28;;;;;;;5.40;4.03;;;;;;;;;;5033448;28;20934;-58
2021/07/29 03:48:57;;;;;;;4.40;4.00;;;;;;;;;;5033584;28;20511;-58
2021/07/29 03:51:25;;;;;;;7.77;4.20;;;;;;;;;;5033634;28;20452;-58
2021/07/29 03:53:52;;;;;;;4.30;3.90;;;;;;;;;;5033250;28;20841;-58
2021/07/29 03:56:21;;;;;;;5.90;3.40;;;;;;;;;;5033972;28;20495;-59
2021/07/29 03:58:48;;;;;;;3.80;3.50;;;;;;;;;;5033275;28;20445;-58
2021/07/29 04:01:17;;;;;;;5.00;3.50;;;;;;;;;;5033407;28;20445;-58
2021/07/29 04:03:44;;;;;;;4.20;3.80;;;;;;;;;;5033489;28;20503;-58
2021/07/29 04:08:23;;;;;;;4.90;3.97;;;;;;;;;;5091214;28;20607;-59
2021/07/29 04:10:50;;;;;;;3.83;3.50;;;;;;;;;;5091472;28;20438;-58
2021/07/29 04:13:18;;;;;;;3.77;3.33;;;;;;;;;;5090955;28;20851;-56
2021/07/29 04:15:45;;;;;;;6.27;4.10;;;;;;;;;;5090589;28;20451;-57
2021/07/29 04:18:12;;;;;;;3.43;3.13;;;;;;;;;;5090677;28;20455;-58
2021/07/29 04:20:43;;;;;;;3.87;3.57;;;;;;;;;;5090322;28;20442;-58
2021/07/29 04:23:10;;;;;;;3.83;3.50;;;;;;;;;;5090464;28;20429;-58
2021/07/29 04:25:39;;;;;;;4.83;4.13;;;;;;;;;;5090558;28;20438;-58
2021/07/29 04:28:06;;;;;;;3.93;3.60;;;;;;;;;;5090484;28;20486;-58
2021/07/29 04:30:33;;;;;;;4.33;3.83;;;;;;;;;;5090631;28;20852;-59
2021/07/29 04:33:00;;;;;;;5.27;3.97;;;;;;;;;;5090622;28;20472;-58
2021/07/29 04:35:27;;;;;;;4.23;3.83;;;;;;;;;;5090603;28;20443;-57
2021/07/29 04:37:55;;;;;;;4.30;3.90;;;;;;;;;;5090336;28;20804;-57
2021/07/29 04:40:22;;;;;;;4.53;4.10;;;;;;;;;;5089976;28;20442;-58
2021/07/29 04:42:50;;;;;;;4.33;4.00;;;;;;;;;;5090193;28;20512;-58
2021/07/29 04:45:18;;;;;;;5.97;4.03;;;;;;;;;;5090159;28;20509;-58
2021/07/29 04:47:45;;;;;;;5.57;3.70;;;;;;;;;;5089878;28;20569;-59
2021/07/29 04:50:12;;;;;;;5.47;4.23;;;;;;;;;;5090536;28;20476;-58
2021/07/29 04:52:39;;;;;;;4.93;3.83;;;;;;;;;;5090274;28;20576;-58
2021/07/29 04:55:07;;;;;;;3.97;3.57;;;;;;;;;;5090168;28;20499;-57
2021/07/29 04:57:34;;;;;;;6.43;4.07;;;;;;;;;;5089831;28;20463;-58
2021/07/29 05:00:03;;;;;;;4.10;3.60;;;;;;;;;;5089514;28;20506;-57
2021/07/29 05:02:30;;;;;;;5.90;3.87;;;;;;;;;;5089490;28;20923;-59
2021/07/29 05:04:58;;;;;;;4.50;4.10;;;;;;;;;;5089937;28;20492;-57
2021/07/29 05:07:25;;;;;;;6.73;3.50;;;;;;;;;;5089408;28;20993;-58
2021/07/29 05:09:52;;;;;;;8.13;3.50;;;;;;;;;;5089404;28;20511;-58
2021/07/29 05:12:19;;;;;;;4.20;3.80;;;;;;;;;;5089777;28;20446;-58
2021/07/29 05:14:47;;;;;;;4.77;3.87;;;;;;;;;;5089297;28;20504;-59
2021/07/29 05:17:16;;;;;;;4.77;3.50;;;;;;;;;;5089156;28;20519;-58
2021/07/29 05:19:43;;;;;;;5.90;4.13;;;;;;;;;;5075749;28;20780;-58
2021/07/29 05:22:11;;;;;;;3.83;3.17;;;;;;;;;;5076012;28;20504;-58
2021/07/29 05:24:38;;;;;;;3.43;3.13;;;;;;;;;;5076040;28;20451;-58
2021/07/29 05:27:05;;;;;;;7.43;3.70;;;;;;;;;;5076227;28;20505;-59
2021/07/29 05:29:33;;;;;;;5.87;3.90;;;;;;;;;;5075836;28;21008;-58
2021/07/29 05:32:00;;;;;;;4.10;2.63;;;;;;;;;;5076092;28;20534;-57
2021/07/29 05:34:29;;;;;;;6.37;3.40;;;;;;;;;;5075558;28;20464;-58
2021/07/29 05:36:56;;;;;;;4.40;3.23;;;;;;;;;;5075606;28;21024;-58
2021/07/29 05:39:24;;;;;;;3.97;2.57;;;;;;;;;;5076477;28;20947;-59
2021/07/29 05:41:51;;;;;;;3.93;2.73;;;;;;;;;;5075762;28;20451;-57
2021/07/29 05:44:18;;;;;;;4.23;2.70;;;;;;;;;;5075752;28;20784;-58
2021/07/29 05:46:45;;;;;;;3.47;2.80;;;;;;;;;;5075299;28;20528;-57
2021/07/29 05:49:12;;;;;;;3.80;3.00;;;;;;;;;;5075400;28;20439;-57
2021/07/29 05:51:41;;;;;;;4.80;2.50;;;;;;;;;;5074857;28;20932;-57
2021/07/29 05:54:08;;;;;;;3.93;3.07;;;;;;;;;;5075307;28;20524;-58
2021/07/29 05:56:35;;;;;;;3.10;2.63;;;;;;;;;;5077463;28;20467;-57
2021/07/29 05:59:03;;;;;;;4.53;2.90;;;;;;;;;;5082351;28;20444;-59
2021/07/29 06:01:30;;;;;;;3.43;3.00;;;;;;;;;;5086801;28;20496;-59
2021/07/29 06:03:57;;;;;;;4.17;2.70;;;;;;;;;;5081505;28;20439;-59
2021/07/29 06:06:24;;;;;;;3.90;2.90;;;;;;;;;;5081348;28;20595;-59
2021/07/29 06:08:57;;;;;;;4.17;2.70;;;;;;;;;;5081564;28;20483;-58
2021/07/29 06:11:25;;;;;;;4.60;2.67;;;;;;;;;;5083325;28;20481;-59
2021/07/29 06:13:52;;;;;;;2.93;2.53;;;;;;;;;;5087930;28;20436;-59
2021/07/29 06:16:19;;;;;;;6.10;2.90;;;;;;;;;;5078434;28;20853;-58
2021/07/29 06:18:53;;;;;;;3.50;2.47;;;;;;;;;;5076099;28;20432;-59
2021/07/29 06:21:20;;;;;;;2.50;2.23;;;;;;;;;;5076150;28;20423;-58
2021/07/29 06:23:47;;;;;;;3.40;2.10;;;;;;;;;;5075968;28;20443;-59
2021/07/29 06:26:16;;;;;;;5.40;2.60;;;;;;;;;;5075294;28;20479;-59
2021/07/29 06:28:43;;;;;;;3.30;2.70;;;;;;;;;;5075144;28;20474;-58
2021/07/29 06:31:10;;;;;;;4.00;2.83;;;;;;;;;;5073870;28;20939;-59
2021/07/29 06:33:38;;;;;;;3.10;2.40;;;;;;;;;;5074892;28;20476;-58
2021/07/29 06:36:05;;;;;;;4.57;2.40;;;;;;;;;;5074886;28;20865;-59
2021/07/29 06:38:32;;;;;;;3.13;2.30;;;;;;;;;;5074532;28;20463;-58
2021/07/29 06:40:59;;;;;;;4.53;2.13;;;;;;;;;;5074467;28;20447;-59
2021/07/29 06:43:28;;;;;;;3.10;2.90;;;;;;;;;;5074299;28;21004;-59
2021/07/29 06:45:55;;;;;;;4.43;2.50;;;;;;;;;;5073890;28;20876;-59
2021/07/29 06:48:23;;;;;;;4.30;3.20;;;;;;;;;;5073908;28;20844;-58
2021/07/29 06:50:50;;;;;;;4.40;3.20;;;;;;;;;;5074541;28;20451;-58
2021/07/29 06:53:17;;;;;;;5.67;3.03;;;;;;;;;;5074046;28;20508;-59
2021/07/29 06:55:45;;;;;;;5.27;2.30;;;;;;;;;;5074326;28;20501;-58
2021/07/29 06:58:12;;;;;;;4.93;2.33;;;;;;;;;;5073839;28;20513;-57
2021/07/29 07:00:41;;;;;;;3.30;2.37;;;;;;;;;;5074362;28;20451;-58
2021/07/29 07:03:08;;;;;;;2.50;2.27;;;;;;;;;;5073974;28;20504;-58
2021/07/29 07:05:35;;;;;;;4.93;2.10;;;;;;;;;;5073865;28;20439;-56
2021/07/29 07:08:03;;;;;;;4.17;2.43;;;;;;;;;;5073811;28;20522;-58
2021/07/29 07:10:33;;;;;;;3.90;2.10;;;;;;;;;;5074118;28;20450;-58
2021/07/29 07:13:00;;;;;;;3.90;2.10;;;;;;;;;;5073922;28;20458;-58
2021/07/29 07:15:27;;;;;;;2.33;1.70;;;;;;;;;;5074211;28;20500;-58
2021/07/29 07:17:56;;;;;;;4.13;2.07;;;;;;;;;;5074323;28;20494;-59
2021/07/29 07:20:24;;;;;;;3.17;2.00;;;;;;;;;;5074198;28;20793;-58
2021/07/29 07:22:51;;;;;;;2.83;2.20;;;;;;;;;;5074202;28;20541;-59
2021/07/29 07:25:19;;;;;;;4.60;2.07;;;;;;;;;;5074765;28;20871;-58
2021/07/29 07:27:46;;;;;;;4.30;2.47;;;;;;;;;;5075495;28;20743;-58
2021/07/29 07:30:13;;;;;;;7.30;2.60;;;;;;;;;;5076074;28;20939;-59
2021/07/29 07:32:41;;;;;;;7.63;2.50;;;;;;;;;;5075449;28;20500;-59
2021/07/29 07:35:10;;;;;;;3.53;2.33;;;;;;;;;;5073996;28;20855;-59
2021/07/29 07:37:39;;;;;;;4.70;2.80;;;;;;;;;;5089466;22;20992;-53
2021/07/29 07:40:07;;;;;;;2.80;2.27;;;;;;;;;;5033162;28;20449;-55
2021/07/29 07:42:34;;;;;;;6.30;2.37;;;;;;;;;;5032969;28;20502;-55
2021/07/29 07:45:01;;;;;;;4.97;2.17;;;;;;;;;;5033995;28;20879;-54
2021/07/29 07:47:29;;;;;;;3.70;2.87;;;;;;;;;;5032555;28;20481;-54
2021/07/29 07:49:56;;;;;;;8.00;3.03;;;;;;;;;;5032813;28;20481;-54
2021/07/29 07:52:25;;;;;;;5.60;2.50;;;;;;;;;;5033037;28;20495;-54
2021/07/29 07:54:52;;;;;;;7.13;2.63;;;;;;;;;;5032783;28;20449;-55
2021/07/29 07:57:19;;;;;;;3.73;3.10;;;;;;;;;;5033245;28;20535;-54
2021/07/29 07:59:46;;;;;;;4.43;3.07;;;;;;;;;;5032641;28;20455;-53
2021/07/29 08:02:14;;;;;;;2.90;2.57;;;;;;;;;;5032876;28;20537;-53
2021/07/29 08:04:41;;;;;;;6.03;2.90;;;;;;;;;;5033055;28;20856;-54
2021/07/29 08:07:08;;;;;;;3.00;2.63;;;;;;;;;;5033003;28;20466;-53
2021/07/29 08:09:37;;;;;;;4.47;2.87;;;;;;;;;;5033029;28;20458;-54
2021/07/29 08:12:04;;;;;;;4.33;3.17;;;;;;;;;;5033083;28;20439;-54
2021/07/29 08:14:31;;;;;;;3.97;2.90;;;;;;;;;;5032859;28;20453;-54
2021/07/29 08:16:59;;;;;;;3.10;2.47;;;;;;;;;;5032516;28;20462;-54
2021/07/29 08:19:26;;;;;;;3.10;2.40;;;;;;;;;;5033120;28;20440;-54
2021/07/29 08:21:53;;;;;;;4.13;2.63;;;;;;;;;;5032789;28;20477;-55
2021/07/29 08:24:21;;;;;;;4.97;3.17;;;;;;;;;;5032930;28;20443;-55
2021/07/29 08:26:49;;;;;;;6.20;2.33;;;;;;;;;;5032915;28;20451;-55
2021/07/29 08:29:16;;;;;;;2.93;2.20;;;;;;;;;;5032976;28;20490;-55
2021/07/29 08:31:44;;;;;;;4.70;2.10;;;;;;;;;;5033293;28;20455;-55
2021/07/29 08:34:11;;;;;;;3.20;2.00;;;;;;;;;;5032741;28;21014;-55
2021/07/29 08:36:38;;;;;;;3.93;2.10;;;;;;;;;;5032699;28;20443;-55
2021/07/29 08:39:05;;;;;;;2.80;2.20;;;;;;;;;;5032291;28;20498;-54
2021/07/29 08:41:33;;;;;;;8.57;2.70;;;;;;;;;;5032811;28;20494;-54
2021/07/29 08:44:01;;;;;;;3.70;2.10;;;;;;;;;;5033336;28;20457;-54
2021/07/29 08:46:28;;;;;;;6.00;2.37;;;;;;;;;;5032648;28;20451;-54
2021/07/29 08:48:56;;;;;;;7.20;2.40;;;;;;;;;;5032538;28;20488;-54
2021/07/29 08:51:24;;;;;;;5.00;2.30;;;;;;;;;;5032413;28;20449;-54
2021/07/29 08:53:51;;;;;;;3.40;2.20;;;;;;;;;;5034208;28;20535;-55
2021/07/29 08:56:23;;;;;;;5.67;2.00;;;;;;;;;;5035854;28;20947;-54
2021/07/29 08:58:50;;;;;;;3.00;2.40;;;;;;;;;;5036327;28;20495;-55
2021/07/29 09:01:19;;;;;;;3.37;2.13;;;;;;;;;;5036043;28;20872;-54
2021/07/29 09:03:52;;;;;;;3.17;2.80;;;;;;;;;;5036803;28;20505;-54
2021/07/29 09:06:19;;;;;;;3.00;2.20;;;;;;;;;;5036642;28;20430;-54
2021/07/29 09:08:48;;;;;;;2.43;2.13;;;;;;;;;;5036220;28;20483;-54
2021/07/29 09:11:28;;;;;;;3.37;2.10;;;;;;;;;;5036176;28;20451;-54
2021/07/29 09:14:05;;;;;;;2.63;2.20;;;;;;;;;;5035939;28;20448;-56
2021/07/29 09:16:37;;;;;;;3.60;2.40;;;;;;;;;;5036406;28;20930;-54
2021/07/29 09:19:05;;;;;;;3.30;2.67;;;;;;;;;;5036802;28;20518;-54
2021/07/29 09:21:32;;;;;;;6.43;2.30;;;;;;;;;;5036442;28;20452;-55
2021/07/29 09:24:06;;;;;;;3.40;2.50;;;;;;;;;;5035664;28;20804;-55
2021/07/29 09:26:48;;;;;;;2.10;1.90;;;;;;;;;;5036548;28;20549;-55
2021/07/29 09:29:21;;;;;;;3.73;2.23;;;;;;;;;;5033158;28;20479;-55
2021/07/29 09:31:52;;;;;;;3.40;2.27;;;;;;;;;;5035637;28;20532;-54
2021/07/29 09:34:19;;;;;;;2.97;2.10;;;;;;;;;;5035220;28;20429;-54
2021/07/29 09:36:47;;;;;;;5.30;2.77;;;;;;;;;;5035107;28;20573;-54
2021/07/29 09:39:18;;;;;;;2.77;2.40;;;;;;;;;;5035185;28;20901;-55
2021/07/29 09:41:47;;;;;;;5.20;2.70;;;;;;;;;;5035429;28;20490;-55
2021/07/29 09:44:15;;;;;;;3.70;2.20;;;;;;;;;;5035423;28;20468;-55
2021/07/29 09:46:42;;;;;;;3.63;2.60;;;;;;;;;;5035303;28;20460;-55
2021/07/29 09:49:12;;;;;;;3.40;2.37;;;;;;;;;;5035251;28;20476;-54
2021/07/29 09:51:41;;;;;;;3.00;2.37;;;;;;;;;;5035143;28;20443;-53
2021/07/29 09:54:10;;;;;;;4.17;2.57;;;;;;;;;;5036015;28;20461;-54
2021/07/29 09:56:37;;;;;;;5.47;2.47;;;;;;;;;;5034904;28;20454;-55
2021/07/29 09:59:06;;;;;;;8.40;3.20;;;;;;;;;;5035232;28;20453;-55
2021/07/29 10:01:34;;;;;;;3.10;2.43;;;;;;;;;;5035091;28;20505;-55
2021/07/29 10:04:01;;;;;;;4.13;2.60;;;;;;;;;;5035410;28;20942;-53
2021/07/29 10:06:30;;;;;;;6.00;2.40;;;;;;;;;;5034725;28;20455;-55
2021/07/29 10:08:59;;;;;;;2.67;2.37;;;;;;;;;;5034730;28;20486;-54
2021/07/29 10:11:28;;;;;;;6.50;2.30;;;;;;;;;;5034693;28;20804;-55
2021/07/29 10:13:55;;;;;;;6.73;2.60;;;;;;;;;;5034297;28;20453;-54
2021/07/29 10:16:37;;;;;;;2.70;2.23;;;;;;;;;;5034883;28;20444;-54
2021/07/29 10:19:09;;;;;;;3.93;2.37;;;;;;;;;;5034412;28;20852;-54
2021/07/29 10:21:40;;;;;;;3.53;2.03;;;;;;;;;;5034605;28;20981;-54
2021/07/29 10:24:08;;;;;;;3.23;2.27;;;;;;;;;;5034721;28;20463;-55
2021/07/29 10:26:36;;;;;;;4.40;2.40;;;;;;;;;;5034476;28;20493;-54
2021/07/29 10:29:25;;;;;;;3.90;2.63;;;;;;;;;;5034528;28;20480;-53
2021/07/29 10:31:53;;;;;;;3.50;1.80;;;;;;;;;;5030140;28;20832;-54
2021/07/29 10:34:27;;;;;;;3.03;1.97;;;;;;;;;;5034257;28;20495;-53
2021/07/29 10:36:56;;;;;;;4.03;1.90;;;;;;;;;;5033847;28;20466;-53
2021/07/29 10:39:23;;;;;;;2.90;2.00;;;;;;;;;;5034050;28;20479;-54
2021/07/29 10:41:52;;;;;;;3.07;1.83;;;;;;;;;;5034427;28;20437;-54
2021/07/29 10:44:38;;;;;;;3.40;2.03;;;;;;;;;;5034475;28;20441;-53
2021/07/29 10:47:06;;;;;;;3.77;1.80;;;;;;;;;;5034092;28;20508;-54
2021/07/29 10:49:53;;;;;;;2.93;1.90;;;;;;;;;;5034151;28;20560;-53
2021/07/29 10:52:22;;;;;;;2.53;1.90;;;;;;;;;;5035055;28;20456;-54
2021/07/29 10:54:52;;;;;;;3.70;2.03;;;;;;;;;;5034855;28;20514;-53
2021/07/29 10:57:19;;;;;;;2.60;1.70;;;;;;;;;;5033935;28;20472;-54
2021/07/29 10:59:46;;;;;;;4.27;2.03;;;;;;;;;;5034335;28;20453;-54
2021/07/29 11:02:16;;;;;;;4.27;1.73;;;;;;;;;;5033844;28;20991;-54
2021/07/29 11:04:53;;;;;;;5.20;1.90;;;;;;;;;;5034043;28;20876;-54
2021/07/29 11:07:21;;;;;;;3.93;2.10;;;;;;;;;;5033656;28;20472;-55
2021/07/29 11:09:49;;;;;;;2.77;2.03;;;;;;;;;;5034026;28;20542;-54
2021/07/29 11:12:19;;;;;;;3.00;1.53;;;;;;;;;;5033891;28;20444;-53
2021/07/29 11:14:47;;;;;;;4.53;2.00;;;;;;;;;;5034837;28;20846;-54
2021/07/29 11:17:14;;;;;;;7.60;2.03;;;;;;;;;;5032745;28;20534;-54
2021/07/29 11:19:45;;;;;;;3.90;1.60;;;;;;;;;;5033521;28;20510;-54
2021/07/29 11:22:12;;;;;;;4.80;1.80;;;;;;;;;;5033931;28;20449;-54
2021/07/29 11:24:40;;;;;;;2.10;1.57;;;;;;;;;;5034207;28;20449;-54
2021/07/29 11:27:11;;;;;;;5.83;1.83;;;;;;;;;;5033880;28;20456;-56
2021/07/29 11:29:53;;;;;;;5.13;2.03;;;;;;;;;;5035073;28;20811;-54
2021/07/29 11:32:21;;;;;;;5.77;1.77;;;;;;;;;;5033800;28;20439;-56
2021/07/29 11:34:56;;;;;;;3.07;1.63;;;;;;;;;;5033982;28;20476;-53
2021/07/29 11:37:23;;;;;;;4.07;2.13;;;;;;;;;;5033196;28;20563;-54
2021/07/29 11:39:52;;;;;;;3.97;2.23;;;;;;;;;;5033050;28;20451;-55
2021/07/29 11:42:19;;;;;;;3.30;2.50;;;;;;;;;;5033276;28;20456;-55
2021/07/29 11:44:49;;;;;;;3.60;1.90;;;;;;;;;;5033309;28;20448;-55
2021/07/29 11:47:16;;;;;;;4.50;2.00;;;;;;;;;;5032954;28;21009;-55
2021/07/29 11:49:48;;;;;;;2.70;1.60;;;;;;;;;;5032928;28;20477;-55
2021/07/29 11:52:15;;;;;;;4.97;1.97;;;;;;;;;;5033334;28;20482;-54
2021/07/29 11:54:43;;;;;;;2.83;1.83;;;;;;;;;;5033158;28;21018;-55
2021/07/29 11:57:12;;;;;;;3.00;2.13;;;;;;;;;;5032829;28;21062;-54
2021/07/29 11:59:39;;;;;;;4.10;1.57;;;;;;;;;;5032736;28;20459;-54
2021/07/29 12:02:08;;;;;;;3.20;2.37;;;;;;;;;;5032822;28;20471;-55
2021/07/29 12:04:36;;;;;;;4.50;2.10;;;;;;;;;;5033642;28;20506;-54
2021/07/29 12:07:04;;;;;;;5.40;2.20;;;;;;;;;;5032797;28;20983;-54
2021/07/29 12:09:32;;;;;;;3.50;2.43;;;;;;;;;;5032765;28;20503;-54
2021/07/29 12:11:59;;;;;;;4.00;2.07;;;;;;;;;;5032705;28;20444;-54
2021/07/29 12:14:28;;;;;;;4.37;2.10;;;;;;;;;;5032338;28;20449;-54
2021/07/29 12:16:57;;;;;;;5.10;1.67;;;;;;;;;;5032823;28;20476;-54
2021/07/29 12:19:26;;;;;;;2.27;1.70;;;;;;;;;;5032627;28;20948;-54
2021/07/29 12:21:56;;;;;;;3.93;2.10;;;;;;;;;;5033120;28;20488;-54
2021/07/29 12:24:24;;;;;;;2.80;1.90;;;;;;;;;;5033032;28;21035;-55
2021/07/29 12:27:09;;;;;;;5.10;2.37;;;;;;;;;;5032844;28;20537;-54
2021/07/29 12:29:41;;;;;;;7.23;1.93;;;;;;;;;;5035481;28;20484;-54
2021/07/29 12:32:18;;;;;;;5.53;1.80;;;;;;;;;;5036686;28;20449;-54
2021/07/29 12:34:45;;;;;;;4.40;2.30;;;;;;;;;;5037103;28;20434;-52
2021/07/29 12:37:13;;;;;;;8.73;2.17;;;;;;;;;;5036363;28;20481;-55
2021/07/29 12:39:44;;;;;;;7.13;1.97;;;;;;;;;;5036564;28;20438;-54
2021/07/29 12:42:25;;;;;;;3.00;2.00;;;;;;;;;;5036643;28;20447;-55
2021/07/29 12:45:00;;;;;;;3.97;1.80;;;;;;;;;;5036650;28;20588;-56
2021/07/29 12:47:28;;;;;;;4.03;2.10;;;;;;;;;;5036412;28;20523;-54
2021/07/29 12:49:55;;;;;;;2.60;2.07;;;;;;;;;;5036329;28;20485;-54
2021/07/29 12:52:23;;;;;;;4.30;2.23;;;;;;;;;;5036006;28;20450;-55
2021/07/29 12:55:07;;;;;;;3.17;1.80;;;;;;;;;;5036153;28;20450;-54
2021/07/29 12:57:49;;;;;;;12.60;2.23;;;;;;;;;;5037250;28;20825;-54
2021/07/29 13:00:18;;;;;;;2.40;1.50;;;;;;;;;;5036320;28;20417;-55
2021/07/29 13:02:45;;;;;;;4.53;2.43;;;;;;;;;;5036422;28;20502;-54
2021/07/29 13:05:12;;;;;;;4.40;2.00;;;;;;;;;;5036216;28;20997;-54
2021/07/29 13:07:40;;;;;;;5.10;2.07;;;;;;;;;;5036324;28;20459;-54
2021/07/29 13:10:08;;;;;;;4.47;2.10;;;;;;;;;;5036176;28;21018;-55
2021/07/29 13:12:35;;;;;;;6.90;1.90;;;;;;;;;;5036153;28;20821;-55
2021/07/29 13:15:03;;;;;;;9.77;2.97;;;;;;;;;;5036327;28;20497;-55
2021/07/29 13:17:32;;;;;;;5.60;2.40;;;;;;;;;;5036268;28;20475;-55
2021/07/29 13:20:00;;;;;;;7.43;1.80;;;;;;;;;;5036204;28;20442;-55
2021/07/29 13:22:28;;;;;;;4.20;2.63;;;;;;;;;;5035532;28;20452;-55
2021/07/29 13:24:56;;;;;;;4.20;2.20;;;;;;;;;;5035671;28;20443;-54
2021/07/29 13:27:24;;;;;;;3.67;1.87;;;;;;;;;;5035638;28;20473;-54
2021/07/29 13:29:51;;;;;;;4.30;2.40;;;;;;;;;;5035476;28;20551;-54
2021/07/29 13:32:18;;;;;;;8.40;2.40;;;;;;;;;;5035175;28;20957;-54
2021/07/29 13:34:47;;;;;;;3.20;2.10;;;;;;;;;;5035200;28;20451;-53
2021/07/29 13:37:14;;;;;;;2.57;2.10;;;;;;;;;;5035270;28;20869;-54
2021/07/29 13:39:42;;;;;;;4.07;2.20;;;;;;;;;;5051088;22;20514;-58
2021/07/29 13:42:09;;;;;;;4.13;2.70;;;;;;;;;;5035529;28;20451;-56
2021/07/29 13:44:42;;;;;;;4.50;2.80;;;;;;;;;;5035001;28;20499;-58
2021/07/29 13:47:09;;;;;;;5.17;2.63;;;;;;;;;;5035458;28;20465;-58
2021/07/29 13:49:36;;;;;;;4.77;2.50;;;;;;;;;;5035140;28;20531;-58
2021/07/29 13:52:06;;;;;;;4.33;2.27;;;;;;;;;;5035295;28;20507;-58
2021/07/29 13:54:33;;;;;;;4.60;2.10;;;;;;;;;;5037050;28;20532;-57
2021/07/29 13:57:00;;;;;;;4.50;2.40;;;;;;;;;;5037880;28;20449;-58
2021/07/29 13:59:27;;;;;;;3.80;2.10;;;;;;;;;;5038352;28;20489;-58
2021/07/29 14:01:54;;;;;;;6.07;2.50;;;;;;;;;;5037933;28;20498;-56
2021/07/29 14:04:22;;;;;;;2.13;1.67;;;;;;;;;;5037832;28;20471;-57
2021/07/29 14:06:49;;;;;;;4.27;2.23;;;;;;;;;;5035977;28;20449;-57
2021/07/29 14:09:18;;;;;;;4.43;2.00;;;;;;;;;;5034698;28;20970;-58
2021/07/29 14:11:45;;;;;;;3.10;2.10;;;;;;;;;;5034993;28;20446;-57
2021/07/29 14:14:12;;;;;;;4.67;1.80;;;;;;;;;;5034882;28;20444;-57
2021/07/29 14:16:39;;;;;;;3.83;2.17;;;;;;;;;;5035026;28;20504;-57
2021/07/29 14:19:08;;;;;;;3.10;1.80;;;;;;;;;;5034095;28;20981;-58
2021/07/29 14:22:52;;;;;;;6.63;2.77;;;;;;;;;;5035404;28;20480;-57
2021/07/29 14:24:23;;;;;;;5.30;2.20;;;;;;;;;;5034419;28;20538;-57
2021/07/29 14:26:50;;;;;;;3.77;2.20;;;;;;;;;;5034415;28;20488;-58
2021/07/29 14:29:17;;;;;;;2.77;1.90;;;;;;;;;;5034601;28;20515;-57
2021/07/29 14:31:45;;;;;;;4.23;2.30;;;;;;;;;;5034345;28;20449;-57
2021/07/29 14:34:12;;;;;;;4.50;2.03;;;;;;;;;;5034341;28;20869;-57
2021/07/29 14:36:39;;;;;;;3.97;2.03;;;;;;;;;;5034319;28;20495;-57
2021/07/29 14:39:06;;;;;;;3.83;1.60;;;;;;;;;;5033952;28;20535;-57
2021/07/29 14:41:35;;;;;;;5.47;2.10;;;;;;;;;;5034246;28;21004;-58
2021/07/29 14:44:02;;;;;;;4.73;2.33;;;;;;;;;;5034438;28;20875;-58
2021/07/29 14:49:17;;;;;;;4.40;1.87;;;;;;;;;;5033930;28;20559;-57
2021/07/29 14:51:47;;;;;;;4.77;1.73;;;;;;;;;;5033316;28;20498;-60
2021/07/29 14:54:14;;;;;;;3.10;2.20;;;;;;;;;;5034449;28;20519;-58
2021/07/29 14:56:45;;;;;;;4.00;1.60;;;;;;;;;;5035021;28;21046;-58
2021/07/29 15:19:03;;;;;;;3.30;1.97;;;;;;;;;;5033518;28;20401;-58